Time;durP1;ratioP1;P1;durP2;ratioP2;P2;SDS_P1;SDS_P2;PMS_P1;PMS_P2;Temp;Humidity;BMP_temperature;BMP_pressure;BME280_temperature;BME280_humidity;BME280_pressure;Samples;Min_cycle;Max_cycle;Signal;HPM_P1;HPM_P2
2022/10/31 00:00:46;;;;;;;14.73;9.55;;;16.50;86.60;;;;;;5022731;28;20104;-76
2022/10/31 00:03:11;;;;;;;16.92;9.95;;;16.50;86.50;;;;;;5016752;28;20026;-75
2022/10/31 00:05:45;;;;;;;14.52;8.77;;;16.50;86.50;;;;;;5028966;28;20124;-76
2022/10/31 00:08:10;;;;;;;14.75;10.27;;;16.40;86.50;;;;;;5017457;28;20081;-76
2022/10/31 00:10:40;;;;;;;13.15;9.20;;;16.40;86.50;;;;;;5026649;28;20021;-76
2022/10/31 00:13:06;;;;;;;13.20;9.10;;;16.40;86.60;;;;;;5023920;28;20028;-76
2022/10/31 00:15:34;;;;;;;16.30;9.10;;;16.40;86.50;;;;;;5024662;28;20392;-76
2022/10/31 00:18:00;;;;;;;14.75;9.23;;;16.40;86.60;;;;;;5021076;28;20052;-76
2022/10/31 00:20:25;;;;;;;14.50;8.80;;;16.40;86.90;;;;;;5024380;28;20456;-76
2022/10/31 00:22:51;;;;;;;14.20;9.07;;;16.30;87.00;;;;;;5026043;28;20526;-76
2022/10/31 00:25:16;;;;;;;18.38;10.82;;;16.30;87.10;;;;;;5028785;28;20026;-77
2022/10/31 00:27:42;;;;;;;14.73;8.38;;;16.30;87.30;;;;;;5025079;28;20052;-75
2022/10/31 00:30:08;;;;;;;17.05;9.95;;;16.30;87.50;;;;;;5022834;28;20045;-75
2022/10/31 00:32:33;;;;;;;15.82;9.65;;;16.30;87.60;;;;;;5017881;28;20032;-75
2022/10/31 00:34:59;;;;;;;17.45;10.23;;;16.30;87.70;;;;;;5028381;28;20022;-75
2022/10/31 00:37:25;;;;;;;17.42;9.00;;;16.30;87.70;;;;;;5020844;28;20040;-76
2022/10/31 00:39:50;;;;;;;12.15;9.07;;;16.30;87.80;;;;;;5019311;28;20514;-75
2022/10/31 00:42:16;;;;;;;14.63;9.27;;;16.30;87.90;;;;;;5027137;28;20083;-76
2022/10/31 00:44:41;;;;;;;16.58;9.95;;;16.30;87.90;;;;;;5021202;28;20050;-76
2022/10/31 00:47:07;;;;;;;14.50;9.90;;;16.30;88.00;;;;;;5013183;28;20045;-77
2022/10/31 00:49:33;;;;;;;15.02;9.77;;;16.30;88.10;;;;;;5021565;28;20049;-76
2022/10/31 00:51:58;;;;;;;18.67;10.70;;;16.30;88.10;;;;;;5028688;28;20041;-76
2022/10/31 00:54:24;;;;;;;15.35;10.10;;;16.30;87.90;;;;;;5016658;28;20121;-76
2022/10/31 00:56:49;;;;;;;20.60;10.98;;;16.20;87.80;;;;;;5023318;28;20033;-76
2022/10/31 00:59:15;;;;;;;15.95;9.90;;;16.20;87.80;;;;;;5028728;28;20030;-76
2022/10/31 01:01:40;;;;;;;11.85;8.23;;;16.20;87.80;;;;;;5028755;28;20037;-75
2022/10/31 01:04:06;;;;;;;14.65;9.85;;;16.20;88.00;;;;;;5017290;28;20083;-76
2022/10/31 01:06:31;;;;;;;15.15;10.02;;;16.20;88.10;;;;;;5027968;28;20103;-76
2022/10/31 01:08:57;;;;;;;14.70;9.35;;;16.20;88.20;;;;;;5018855;28;20780;-75
2022/10/31 01:11:23;;;;;;;14.95;9.60;;;16.20;88.10;;;;;;5025814;28;20022;-75
2022/10/31 01:13:53;;;;;;;18.17;9.75;;;16.20;88.00;;;;;;5026059;28;20088;-75
2022/10/31 01:16:22;;;;;;;15.23;9.48;;;16.10;87.90;;;;;;5029174;28;20366;-76
2022/10/31 01:18:48;;;;;;;12.48;8.52;;;16.10;87.80;;;;;;5019384;28;20129;-76
2022/10/31 01:21:17;;;;;;;15.45;10.23;;;16.10;87.80;;;;;;5027671;28;20566;-76
2022/10/31 01:23:43;;;;;;;16.83;10.60;;;16.10;88.10;;;;;;5008119;28;20106;-76
2022/10/31 01:26:19;;;;;;;16.20;10.13;;;16.10;88.10;;;;;;5027403;28;20017;-76
2022/10/31 01:28:56;;;;;;;22.40;10.38;;;16.10;88.20;;;;;;5006742;28;20109;-76
2022/10/31 01:31:25;;;;;;;14.70;10.13;;;16.10;88.20;;;;;;5027835;28;20013;-76
2022/10/31 01:33:50;;;;;;;18.67;10.10;;;16.10;88.20;;;;;;5017046;28;20032;-76
2022/10/31 01:36:16;;;;;;;18.35;10.38;;;16.00;88.10;;;;;;5020897;28;20021;-76
2022/10/31 01:38:42;;;;;;;14.93;10.88;;;16.00;88.10;;;;;;5014962;28;20018;-76
2022/10/31 01:41:10;;;;;;;14.93;10.48;;;16.00;88.00;;;;;;5023086;28;20338;-76
2022/10/31 01:43:49;;;;;;;12.48;9.02;;;16.00;87.90;;;;;;5023181;28;20030;-77
2022/10/31 01:46:29;;;;;;;15.25;9.35;;;15.90;87.70;;;;;;5022830;28;20028;-76
2022/10/31 01:48:57;;;;;;;14.23;9.95;;;15.90;87.60;;;;;;5007418;28;20808;-77
2022/10/31 01:51:28;;;;;;;16.08;10.20;;;15.90;87.50;;;;;;5022485;28;20025;-76
2022/10/31 01:53:58;;;;;;;13.95;10.10;;;15.80;87.70;;;;;;5007124;28;20057;-75
2022/10/31 01:56:24;;;;;;;17.50;10.40;;;15.80;87.50;;;;;;5015265;28;20033;-76
2022/10/31 01:58:52;;;;;;;15.80;9.35;;;15.80;87.30;;;;;;5012522;28;20092;-76
2022/10/31 02:01:18;;;;;;;15.60;10.88;;;15.80;87.30;;;;;;5013694;28;20029;-76
2022/10/31 02:03:46;;;;;;;13.38;9.13;;;15.80;87.40;;;;;;5010832;28;20030;-75
2022/10/31 02:06:29;;;;;;;12.55;9.20;;;15.80;87.50;;;;;;5028892;28;20491;-76
2022/10/31 02:08:57;;;;;;;12.52;9.93;;;15.70;87.50;;;;;;5030777;28;20022;-76
2022/10/31 02:11:23;;;;;;;16.58;9.95;;;15.70;87.30;;;;;;5020257;28;20017;-76
2022/10/31 02:13:49;;;;;;;17.88;10.18;;;15.70;87.30;;;;;;5019929;28;20472;-77
2022/10/31 02:16:15;;;;;;;15.07;10.40;;;15.70;87.50;;;;;;5029240;28;20075;-76
2022/10/31 02:18:41;;;;;;;16.27;9.95;;;15.70;87.50;;;;;;5030388;28;20028;-75
2022/10/31 02:21:52;;;;;;;15.20;9.93;;;15.70;87.70;;;;;;5012691;28;20103;-75
2022/10/31 02:24:38;;;;;;;16.30;10.52;;;15.70;87.80;;;;;;5018247;28;20045;-76
2022/10/31 02:27:47;;;;;;;15.35;9.00;;;15.70;87.50;;;;;;5027220;28;20017;-76
2022/10/31 02:30:23;;;;;;;15.50;10.68;;;15.60;87.50;;;;;;5029880;28;20025;-76
2022/10/31 02:32:52;;;;;;;15.43;10.88;;;15.70;87.50;;;;;;5021257;28;20022;-76
2022/10/31 02:35:27;;;;;;;19.15;10.93;;;15.60;87.20;;;;;;5027725;28;20067;-76
2022/10/31 02:38:10;;;;;;;14.50;9.80;;;15.60;87.30;;;;;;5012351;28;20092;-75
2022/10/31 02:40:59;;;;;;;14.35;10.57;;;15.60;87.30;;;;;;5016943;28;20025;-77
2022/10/31 02:43:53;;;;;;;14.98;9.77;;;15.60;87.20;;;;;;5025271;28;20037;-77
2022/10/31 02:46:34;;;;;;;14.93;10.48;;;15.50;87.10;;;;;;5018879;28;20061;-76
2022/10/31 02:49:07;;;;;;;19.42;11.02;;;15.50;87.00;;;;;;5028402;28;20022;-76
2022/10/31 02:51:33;;;;;;;16.42;10.82;;;15.50;86.90;;;;;;5010170;28;20034;-76
2022/10/31 02:53:59;;;;;;;16.60;10.25;;;15.50;86.90;;;;;;5029903;28;20036;-76
2022/10/31 02:56:24;;;;;;;15.50;10.88;;;15.50;87.00;;;;;;5030501;28;20033;-77
2022/10/31 02:59:03;;;;;;;14.98;10.93;;;15.40;86.80;;;;;;5018682;28;20026;-76
2022/10/31 03:01:47;;;;;;;13.55;9.98;;;15.40;86.80;;;;;;5024356;28;20065;-76
2022/10/31 03:04:36;;;;;;;14.70;9.95;;;15.40;86.60;;;;;;5025481;28;20033;-76
2022/10/31 03:07:05;;;;;;;14.63;10.20;;;15.30;86.80;;;;;;5018334;28;20028;-76
2022/10/31 03:09:45;;;;;;;14.20;9.88;;;15.30;86.70;;;;;;5028372;28;20072;-76
2022/10/31 03:12:17;;;;;;;17.75;10.35;;;15.30;87.00;;;;;;5020369;28;20127;-76
2022/10/31 03:15:05;;;;;;;16.60;10.77;;;15.30;86.90;;;;;;5028879;28;20025;-76
2022/10/31 03:17:56;;;;;;;16.45;9.80;;;15.30;86.90;;;;;;5017106;28;20022;-76
2022/10/31 03:20:29;;;;;;;17.00;10.50;;;15.30;86.90;;;;;;5040162;28;20029;-76
2022/10/31 03:22:57;;;;;;;14.20;10.13;;;15.20;86.70;;;;;;5017853;28;20049;-78
2022/10/31 03:25:23;;;;;;;18.85;11.57;;;15.20;86.90;;;;;;5028972;28;20091;-76
2022/10/31 03:27:51;;;;;;;16.73;11.10;;;15.20;87.00;;;;;;5025068;28;20026;-76
2022/10/31 03:30:17;;;;;;;15.18;10.95;;;15.20;86.90;;;;;;5019407;28;20395;-76
2022/10/31 03:32:52;;;;;;;16.65;11.32;;;15.20;86.90;;;;;;5024879;28;20018;-75
2022/10/31 03:35:20;;;;;;;14.82;11.05;;;15.20;87.00;;;;;;5026074;28;20029;-75
2022/10/31 03:37:48;;;;;;;19.40;11.32;;;15.20;86.90;;;;;;5016382;28;20033;-75
2022/10/31 03:40:15;;;;;;;15.98;11.82;;;15.20;86.90;;;;;;5025470;28;20048;-76
2022/10/31 03:42:46;;;;;;;18.77;11.85;;;15.10;86.70;;;;;;5012831;28;20045;-74
2022/10/31 03:45:22;;;;;;;15.65;10.80;;;15.10;86.50;;;;;;5027513;28;20026;-75
2022/10/31 03:47:47;;;;;;;19.52;12.40;;;15.10;86.50;;;;;;5015027;28;20813;-76
2022/10/31 03:50:14;;;;;;;15.93;11.77;;;15.00;86.30;;;;;;5028686;28;20022;-75
2022/10/31 03:52:59;;;;;;;18.20;13.30;;;15.00;86.60;;;;;;5026652;28;20140;-76
2022/10/31 03:55:31;;;;;;;17.95;11.50;;;15.00;86.70;;;;;;5023054;28;20431;-75
2022/10/31 03:58:25;;;;;;;20.52;12.20;;;15.00;86.90;;;;;;5027975;28;20030;-76
2022/10/31 04:00:54;;;;;;;17.02;10.95;;;15.00;87.20;;;;;;5018791;28;20030;-75
2022/10/31 04:03:31;;;;;;;16.98;10.73;;;15.00;87.20;;;;;;5024775;28;20030;-76
2022/10/31 04:06:01;;;;;;;18.60;12.48;;;15.00;87.40;;;;;;5023322;28;20048;-76
2022/10/31 04:08:31;;;;;;;21.55;10.88;;;15.00;87.20;;;;;;5014304;28;20395;-75
2022/10/31 04:11:00;;;;;;;19.63;11.93;;;14.90;87.00;;;;;;5021565;28;20417;-76
2022/10/31 04:13:31;;;;;;;17.08;12.35;;;15.00;87.10;;;;;;5024955;28;20038;-75
2022/10/31 04:15:57;;;;;;;17.45;11.48;;;14.90;87.20;;;;;;5020804;28;20053;-76
2022/10/31 04:18:23;;;;;;;20.30;12.13;;;15.00;87.30;;;;;;5015423;28;20030;-76
2022/10/31 04:20:58;;;;;;;18.95;11.63;;;14.90;87.20;;;;;;5026252;28;20046;-75
2022/10/31 04:23:25;;;;;;;17.67;11.77;;;14.90;87.30;;;;;;5024948;28;20033;-75
2022/10/31 04:25:51;;;;;;;16.95;11.90;;;14.90;87.40;;;;;;5016433;28;20017;-76
2022/10/31 04:28:17;;;;;;;21.27;12.35;;;14.90;87.50;;;;;;5021611;28;20037;-76
2022/10/31 04:30:42;;;;;;;18.65;11.60;;;14.90;87.70;;;;;;5024830;28;20449;-76
2022/10/31 04:33:08;;;;;;;13.32;9.63;;;14.90;87.60;;;;;;5022601;28;20084;-75
2022/10/31 04:35:34;;;;;;;19.13;11.02;;;14.90;87.50;;;;;;5023913;28;20033;-75
2022/10/31 04:37:59;;;;;;;17.70;11.98;;;14.90;87.90;;;;;;5027609;28;20013;-76
2022/10/31 04:40:25;;;;;;;27.48;15.88;;;14.90;87.90;;;;;;5022259;28;20060;-76
2022/10/31 04:42:51;;;;;;;26.05;15.43;;;14.90;88.00;;;;;;5018600;28;20030;-76
2022/10/31 04:45:16;;;;;;;27.08;14.82;;;14.80;87.80;;;;;;5020791;28;20030;-77
2022/10/31 04:47:42;;;;;;;22.30;15.10;;;14.80;87.70;;;;;;5025558;28;20140;-78
2022/10/31 04:50:08;;;;;;;21.40;14.48;;;14.70;87.80;;;;;;5015504;28;20022;-77
2022/10/31 04:52:42;;;;;;;23.98;14.32;;;14.70;87.80;;;;;;5027871;28;20072;-77
2022/10/31 04:55:10;;;;;;;20.67;14.57;;;14.60;87.90;;;;;;5013137;28;20032;-78
2022/10/31 04:57:46;;;;;;;23.83;14.80;;;14.60;88.00;;;;;;5020166;28;20053;-78
2022/10/31 05:00:15;;;;;;;23.85;15.88;;;14.50;88.10;;;;;;5027233;28;20024;-78
2022/10/31 05:02:48;;;;;;;27.17;15.57;;;14.50;88.20;;;;;;5028996;28;20120;-77
2022/10/31 05:05:15;;;;;;;22.67;15.45;;;14.50;88.30;;;;;;5029218;28;20100;-78
2022/10/31 05:07:43;;;;;;;22.38;15.60;;;14.50;88.30;;;;;;5028412;28;20480;-78
2022/10/31 05:10:11;;;;;;;24.77;16.98;;;14.40;88.50;;;;;;5020989;28;20030;-79
2022/10/31 05:12:38;;;;;;;26.73;17.73;;;14.40;88.80;;;;;;5018626;28;20022;-78
2022/10/31 05:15:05;;;;;;;24.92;16.90;;;14.30;89.10;;;;;;5010128;28;20033;-77
2022/10/31 05:17:31;;;;;;;23.98;16.50;;;14.30;89.00;;;;;;5021017;28;20037;-77
2022/10/31 05:19:57;;;;;;;27.40;17.08;;;14.30;89.20;;;;;;5020291;28;20026;-77
2022/10/31 05:22:22;;;;;;;28.85;17.50;;;14.30;89.40;;;;;;5019896;28;20892;-78
2022/10/31 05:24:48;;;;;;;27.77;17.08;;;14.30;89.70;;;;;;5022050;28;20026;-78
2022/10/31 05:27:13;;;;;;;23.33;16.45;;;14.20;89.90;;;;;;5011226;28;20394;-78
2022/10/31 05:29:39;;;;;;;25.25;17.00;;;14.20;90.00;;;;;;5020600;28;20112;-78
2022/10/31 05:32:05;;;;;;;26.35;17.40;;;14.20;90.00;;;;;;5007929;28;20030;-77
2022/10/31 05:34:30;;;;;;;28.52;17.35;;;14.20;90.10;;;;;;5022064;28;20040;-79
2022/10/31 05:36:56;;;;;;;25.73;17.50;;;14.20;90.10;;;;;;5015146;28;20032;-78
2022/10/31 05:39:21;;;;;;;26.98;17.60;;;14.20;90.20;;;;;;5028459;28;20021;-78
2022/10/31 05:41:47;;;;;;;29.20;18.55;;;14.20;90.20;;;;;;5018917;28;20511;-77
2022/10/31 05:44:13;;;;;;;26.92;17.27;;;14.20;90.30;;;;;;5027121;28;20100;-78
2022/10/31 05:46:39;;;;;;;29.20;18.08;;;14.20;90.30;;;;;;5024005;28;20026;-78
2022/10/31 05:49:05;;;;;;;27.52;19.17;;;14.20;90.40;;;;;;5024757;28;20391;-78
2022/10/31 05:51:30;;;;;;;28.75;18.65;;;14.20;90.50;;;;;;5032860;28;20032;-76
2022/10/31 05:53:56;;;;;;;24.40;17.45;;;14.20;90.50;;;;;;5024796;28;20026;-78
2022/10/31 05:56:22;;;;;;;28.80;18.35;;;14.20;90.50;;;;;;5025039;28;20014;-77
2022/10/31 05:58:47;;;;;;;28.23;19.17;;;14.20;90.60;;;;;;5020055;28;20022;-77
2022/10/31 06:01:13;;;;;;;27.38;19.08;;;14.30;90.70;;;;;;5020483;28;20506;-78
2022/10/31 06:03:38;;;;;;;26.05;19.30;;;14.30;90.80;;;;;;5022670;28;20108;-78
2022/10/31 06:06:05;;;;;;;28.23;18.20;;;14.30;90.80;;;;;;5033166;28;20024;-77
2022/10/31 06:08:30;;;;;;;26.77;19.77;;;14.30;90.80;;;;;;5021360;28;20033;-78
2022/10/31 06:10:56;;;;;;;30.95;18.40;;;14.30;90.90;;;;;;5029302;28;20033;-78
2022/10/31 06:13:21;;;;;;;28.50;19.00;;;14.30;90.90;;;;;;5020435;28;20404;-78
2022/10/31 06:15:47;;;;;;;29.20;19.75;;;14.30;90.90;;;;;;5022497;28;20043;-79
2022/10/31 06:18:14;;;;;;;28.75;19.27;;;14.30;90.90;;;;;;5019820;28;20025;-78
2022/10/31 06:20:39;;;;;;;27.42;18.95;;;14.20;90.90;;;;;;5024677;28;20033;-78
2022/10/31 06:23:06;;;;;;;24.42;15.43;;;14.20;90.90;;;;;;5022481;28;20034;-71
2022/10/31 06:25:32;;;;;;;20.48;11.15;;;14.20;91.10;;;;;;5023596;28;20037;-72
2022/10/31 06:27:58;;;;;;;26.42;13.00;;;14.50;91.50;;;;;;5020499;28;20371;-71
2022/10/31 06:30:24;;;;;;;24.60;17.42;;;15.00;92.50;;;;;;5018469;28;20085;-71
2022/10/31 06:32:49;;;;;;;13.93;6.78;;;15.50;93.00;;;;;;5020249;28;20025;-70
2022/10/31 06:35:15;;;;;;;18.73;10.77;;;15.90;92.20;;;;;;5018322;28;20083;-71
2022/10/31 06:37:41;;;;;;;16.45;10.88;;;16.20;90.80;;;;;;5018661;28;20025;-71
2022/10/31 06:40:07;;;;;;;14.32;11.02;;;16.50;91.00;;;;;;5021457;28;20047;-70
2022/10/31 06:42:33;;;;;;;17.50;11.38;;;16.70;90.70;;;;;;5020167;28;20108;-72
2022/10/31 06:44:58;;;;;;;14.35;10.32;;;16.90;90.50;;;;;;5017639;28;20029;-71
2022/10/31 06:47:24;;;;;;;15.77;10.10;;;17.10;90.20;;;;;;5028286;28;20037;-72
2022/10/31 06:49:49;;;;;;;16.15;10.23;;;17.20;89.90;;;;;;5009794;28;20018;-71
2022/10/31 06:52:15;;;;;;;8.95;5.93;;;17.30;89.10;;;;;;5027047;28;20028;-70
2022/10/31 06:54:41;;;;;;;5.82;3.25;;;17.40;83.50;;;;;;5012302;28;20022;-71
2022/10/31 06:57:06;;;;;;;18.88;8.32;;;17.50;80.30;;;;;;5025837;28;20037;-71
2022/10/31 06:59:32;;;;;;;16.92;8.75;;;17.60;82.70;;;;;;5021356;28;20030;-71
2022/10/31 07:01:58;;;;;;;17.50;9.98;;;17.70;84.60;;;;;;5017960;28;20037;-72
2022/10/31 07:04:24;;;;;;;14.23;9.68;;;17.70;85.20;;;;;;5021105;28;20096;-72
2022/10/31 07:06:53;;;;;;;19.77;10.60;;;17.80;85.30;;;;;;5021264;28;20076;-70
2022/10/31 07:09:18;;;;;;;18.85;10.77;;;17.90;85.40;;;;;;5017746;28;20029;-72
2022/10/31 07:11:44;;;;;;;14.23;10.55;;;18.00;85.30;;;;;;5025309;28;20032;-71
2022/10/31 07:14:10;;;;;;;19.35;10.95;;;18.00;85.00;;;;;;5025170;28;20049;-71
2022/10/31 07:16:35;;;;;;;18.48;11.18;;;18.10;84.70;;;;;;5022977;28;20029;-72
2022/10/31 07:19:01;;;;;;;16.65;10.55;;;18.20;84.50;;;;;;5010018;28;20018;-71
2022/10/31 07:21:26;;;;;;;14.38;9.55;;;18.20;84.00;;;;;;5015394;28;20041;-71
2022/10/31 07:23:52;;;;;;;16.95;10.38;;;18.40;82.80;;;;;;5021130;28;20018;-71
2022/10/31 07:26:18;;;;;;;16.70;10.45;;;18.60;82.70;;;;;;5011742;28;20613;-72
2022/10/31 07:28:45;;;;;;;15.93;10.07;;;18.80;82.20;;;;;;5024169;28;20021;-71
2022/10/31 07:31:10;;;;;;;16.63;10.38;;;18.90;81.80;;;;;;5014736;28;20052;-71
2022/10/31 07:33:36;;;;;;;16.52;9.90;;;18.90;81.30;;;;;;5017907;28;20487;-71
2022/10/31 07:36:02;;;;;;;16.73;10.50;;;19.00;81.10;;;;;;5020830;28;20029;-71
2022/10/31 07:38:28;;;;;;;15.27;10.52;;;19.00;80.70;;;;;;5028078;28;20017;-71
2022/10/31 07:40:55;;;;;;;17.83;10.48;;;19.10;80.30;;;;;;5015032;28;20030;-72
2022/10/31 07:43:20;;;;;;;15.90;10.30;;;19.20;79.90;;;;;;5023414;28;20045;-71
2022/10/31 07:45:53;;;;;;;16.20;10.65;;;19.30;79.60;;;;;;5028458;28;20033;-73
2022/10/31 07:48:19;;;;;;;12.93;8.75;;;19.40;79.50;;;;;;5022396;28;20514;-74
2022/10/31 07:50:44;;;;;;;14.45;9.40;;;19.50;79.10;;;;;;5017508;28;20484;-73
2022/10/31 07:53:12;;;;;;;14.82;10.57;;;19.70;78.70;;;;;;5019987;28;20026;-74
2022/10/31 07:55:38;;;;;;;13.30;9.23;;;19.80;78.20;;;;;;5018988;28;20017;-74
2022/10/31 07:58:06;;;;;;;13.18;8.73;;;20.00;78.10;;;;;;5022107;28;20026;-74
2022/10/31 08:00:33;;;;;;;16.80;10.48;;;20.10;77.60;;;;;;5015936;28;20096;-76
2022/10/31 08:03:07;;;;;;;13.88;9.27;;;20.20;77.10;;;;;;5011192;28;20037;-73
2022/10/31 08:05:34;;;;;;;12.18;8.95;;;20.50;76.70;;;;;;5008949;28;20022;-73
2022/10/31 08:08:00;;;;;;;17.15;10.25;;;20.60;76.00;;;;;;5006776;28;20510;-73
2022/10/31 08:10:26;;;;;;;13.38;8.48;;;20.80;75.50;;;;;;5015860;28;20037;-76
2022/10/31 08:13:10;;;;;;;13.63;9.13;;;20.90;75.00;;;;;;5012492;28;20038;-75
2022/10/31 08:15:38;;;;;;;13.63;9.40;;;21.00;74.40;;;;;;5010175;28;20083;-73
2022/10/31 08:18:14;;;;;;;12.38;8.50;;;21.10;74.00;;;;;;5013846;28;20056;-74
2022/10/31 08:20:40;;;;;;;12.45;8.45;;;21.20;73.90;;;;;;5007394;28;20034;-73
2022/10/31 08:23:06;;;;;;;11.05;7.10;;;21.30;73.60;;;;;;5009463;28;20552;-73
2022/10/31 08:25:34;;;;;;;9.65;6.75;;;21.30;73.30;;;;;;5009261;28;20030;-75
2022/10/31 08:28:00;;;;;;;13.52;8.60;;;21.30;73.10;;;;;;5010501;28;20080;-74
2022/10/31 08:30:28;;;;;;;10.25;7.47;;;21.20;72.60;;;;;;5013262;28;20516;-74
2022/10/31 08:33:02;;;;;;;14.40;8.48;;;21.10;72.70;;;;;;5014424;28;20492;-75
2022/10/31 08:35:28;;;;;;;11.90;7.60;;;21.00;72.60;;;;;;5013167;28;20034;-73
2022/10/31 08:37:55;;;;;;;14.55;8.70;;;21.10;73.20;;;;;;5011493;28;20036;-74
2022/10/31 08:40:21;;;;;;;12.23;8.75;;;21.10;73.10;;;;;;5011806;28;20382;-74
2022/10/31 08:42:47;;;;;;;14.45;9.57;;;21.20;73.20;;;;;;5006190;28;20480;-75
2022/10/31 08:45:13;;;;;;;14.35;10.18;;;21.40;73.00;;;;;;5011480;28;20029;-74
2022/10/31 08:47:38;;;;;;;12.45;8.68;;;21.40;72.60;;;;;;5009909;28;20044;-76
2022/10/31 08:50:04;;;;;;;10.18;5.68;;;21.50;72.70;;;;;;5010591;28;20057;-77
2022/10/31 08:52:30;;;;;;;10.20;7.38;;;21.50;73.10;;;;;;5010559;28;20029;-75
2022/10/31 08:54:56;;;;;;;13.18;8.75;;;21.50;72.80;;;;;;5008739;28;20258;-74
2022/10/31 08:57:21;;;;;;;11.73;7.32;;;21.50;72.20;;;;;;5012104;28;20034;-76
2022/10/31 08:59:47;;;;;;;11.35;7.07;;;21.60;72.40;;;;;;5009302;28;20037;-74
2022/10/31 09:02:13;;;;;;;10.38;6.38;;;21.60;72.40;;;;;;5009861;28;20033;-74
2022/10/31 09:04:38;;;;;;;9.70;6.25;;;21.60;72.30;;;;;;5010866;28;20026;-75
2022/10/31 09:07:04;;;;;;;12.20;7.00;;;21.70;72.30;;;;;;5009598;28;20109;-74
2022/10/31 09:09:29;;;;;;;9.23;5.32;;;21.80;72.20;;;;;;5011943;28;20030;-73
2022/10/31 09:11:55;;;;;;;9.85;6.43;;;21.70;72.10;;;;;;5012868;28;20137;-73
2022/10/31 09:14:21;;;;;;;7.78;4.97;;;21.70;72.80;;;;;;5011584;28;20076;-73
2022/10/31 09:16:46;;;;;;;8.65;4.53;;;21.50;72.70;;;;;;5011412;28;20033;-73
2022/10/31 09:19:12;;;;;;;9.05;6.20;;;21.50;73.40;;;;;;5008692;28;20080;-75
2022/10/31 09:21:37;;;;;;;9.23;6.47;;;21.40;73.30;;;;;;5023117;28;20042;-75
2022/10/31 09:24:04;;;;;;;8.63;5.57;;;21.30;73.70;;;;;;5023856;28;20075;-73
2022/10/31 09:26:30;;;;;;;8.55;4.75;;;21.20;73.70;;;;;;5019656;28;20037;-72
2022/10/31 09:28:57;;;;;;;7.85;4.72;;;21.10;74.00;;;;;;5024935;28;20113;-71
2022/10/31 09:31:23;;;;;;;6.30;3.28;;;21.00;74.50;;;;;;5026505;28;20021;-72
2022/10/31 09:33:48;;;;;;;9.65;5.40;;;20.80;75.60;;;;;;5020887;28;20455;-72
2022/10/31 09:36:14;;;;;;;8.95;5.82;;;20.60;76.70;;;;;;5020876;28;20435;-72
2022/10/31 09:38:39;;;;;;;9.02;5.22;;;20.30;77.10;;;;;;5027017;28;20026;-71
2022/10/31 09:41:23;;;;;;;8.13;4.95;;;20.20;77.90;;;;;;5023559;28;20018;-72
2022/10/31 09:44:14;;;;;;;7.43;4.05;;;20.00;78.20;;;;;;5018839;28;20066;-70
2022/10/31 09:47:11;;;;;;;6.88;4.65;;;19.90;78.90;;;;;;5020387;28;20147;-69
2022/10/31 09:50:06;;;;;;;9.70;4.00;;;19.90;79.40;;;;;;5003998;28;20052;-70
2022/10/31 09:52:38;;;;;;;7.97;4.18;;;19.90;79.90;;;;;;5020458;28;20074;-72
2022/10/31 09:55:19;;;;;;;6.85;3.75;;;20.00;79.40;;;;;;5013541;28;20360;-70
2022/10/31 09:57:46;;;;;;;10.75;4.60;;;20.00;79.10;;;;;;5026002;28;20622;-70
2022/10/31 10:00:19;;;;;;;7.57;3.58;;;20.10;78.80;;;;;;5019706;28;20046;-70
2022/10/31 10:02:56;;;;;;;5.50;3.25;;;20.10;78.50;;;;;;5020493;28;20041;-70
2022/10/31 10:05:28;;;;;;;8.55;4.63;;;20.20;79.10;;;;;;5026292;28;20052;-72
2022/10/31 10:08:03;;;;;;;9.18;5.15;;;20.20;77.90;;;;;;5021940;28;20034;-70
2022/10/31 10:10:47;;;;;;;10.75;5.90;;;20.00;77.80;;;;;;5015037;28;20018;-71
2022/10/31 10:13:28;;;;;;;8.40;5.20;;;19.90;78.10;;;;;;5021917;28;20164;-70
2022/10/31 10:15:56;;;;;;;14.73;7.38;;;19.80;78.50;;;;;;5019536;28;20030;-71
2022/10/31 10:18:28;;;;;;;9.77;5.63;;;19.70;78.40;;;;;;5018620;28;20021;-70
2022/10/31 10:20:53;;;;;;;7.97;4.53;;;19.60;78.80;;;;;;5018625;28;20046;-71
2022/10/31 10:23:28;;;;;;;10.02;5.80;;;19.50;79.00;;;;;;5019142;28;20053;-71
2022/10/31 10:26:05;;;;;;;11.40;5.85;;;19.50;79.10;;;;;;5028178;28;20108;-71
2022/10/31 10:28:38;;;;;;;9.95;7.00;;;19.40;79.10;;;;;;5016780;28;20033;-71
2022/10/31 10:31:14;;;;;;;13.07;7.57;;;19.30;79.20;;;;;;5015765;28;20018;-71
2022/10/31 10:34:03;;;;;;;9.50;5.43;;;19.20;79.50;;;;;;5021206;28;20029;-72
2022/10/31 10:36:34;;;;;;;13.88;8.40;;;19.10;80.00;;;;;;5006276;28;20033;-72
2022/10/31 10:39:20;;;;;;;12.95;7.35;;;19.00;79.80;;;;;;5029716;28;20041;-70
2022/10/31 10:47:39;;;;;;;12.30;6.28;;;19.00;79.90;;;;;;5015531;28;20481;-71
2022/10/31 10:50:29;;;;;;;10.93;5.90;;;19.00;79.90;;;;;;5022991;28;20013;-71
2022/10/31 10:53:31;;;;;;;8.55;6.13;;;19.00;80.00;;;;;;5026168;28;20045;-71
2022/10/31 10:56:09;;;;;;;9.63;5.80;;;19.10;80.00;;;;;;5016925;28;20045;-70
2022/10/31 10:58:37;;;;;;;8.77;5.63;;;19.10;79.60;;;;;;5021046;28;20103;-71
2022/10/31 11:01:10;;;;;;;9.57;6.60;;;19.30;79.70;;;;;;5030506;28;20036;-71
2022/10/31 11:03:36;;;;;;;13.45;8.05;;;19.40;79.60;;;;;;5017577;28;20033;-70
2022/10/31 11:06:02;;;;;;;8.98;6.13;;;19.60;79.20;;;;;;5028977;28;20071;-71
2022/10/31 11:08:33;;;;;;;11.45;6.63;;;19.70;78.90;;;;;;5016611;28;20030;-71
2022/10/31 11:11:25;;;;;;;10.15;5.35;;;19.80;78.30;;;;;;5022068;28;20562;-70
2022/10/31 11:13:55;;;;;;;10.68;6.38;;;19.80;78.30;;;;;;5013064;28;20037;-71
2022/10/31 11:16:31;;;;;;;12.25;7.43;;;20.00;77.80;;;;;;5023552;28;20340;-71
2022/10/31 11:19:12;;;;;;;18.40;10.65;;;20.00;77.40;;;;;;5011676;28;20040;-71
2022/10/31 11:21:38;;;;;;;15.75;10.60;;;20.00;77.20;;;;;;5025710;28;20056;-71
2022/10/31 11:24:10;;;;;;;13.57;8.45;;;20.00;77.30;;;;;;5011554;28;20025;-71
2022/10/31 11:26:37;;;;;;;12.63;7.68;;;20.00;77.20;;;;;;5021600;28;20033;-71
2022/10/31 11:29:05;;;;;;;11.10;6.68;;;20.00;77.30;;;;;;5016851;28;20096;-71
2022/10/31 11:31:32;;;;;;;12.15;7.82;;;20.00;77.40;;;;;;5020802;28;20029;-70
2022/10/31 11:34:05;;;;;;;13.43;8.43;;;19.90;77.40;;;;;;5027533;28;20083;-71
2022/10/31 11:36:36;;;;;;;10.10;5.85;;;19.80;77.70;;;;;;5021844;28;20113;-72
2022/10/31 11:39:04;;;;;;;10.57;6.57;;;19.80;78.00;;;;;;5015502;28;20036;-71
2022/10/31 11:41:38;;;;;;;16.30;9.43;;;19.80;78.00;;;;;;5028604;28;20057;-71
2022/10/31 11:44:11;;;;;;;11.70;7.28;;;19.80;77.80;;;;;;5023734;28;20030;-71
2022/10/31 11:46:59;;;;;;;17.38;10.20;;;19.90;77.90;;;;;;5026606;28;20018;-72
2022/10/31 11:49:46;;;;;;;12.25;8.18;;;19.90;77.70;;;;;;5016936;28;20041;-71
2022/10/31 11:52:17;;;;;;;14.23;6.88;;;19.90;77.70;;;;;;5021697;28;20041;-71
2022/10/31 11:54:57;;;;;;;12.85;8.38;;;19.80;77.90;;;;;;5012377;28;20026;-72
2022/10/31 11:57:43;;;;;;;13.65;8.73;;;19.70;78.00;;;;;;5024831;28;20033;-71
2022/10/31 12:00:25;;;;;;;18.60;10.18;;;19.70;78.10;;;;;;5019180;28;20519;-70
2022/10/31 12:03:03;;;;;;;14.48;8.15;;;19.70;78.10;;;;;;5023721;28;20065;-71
2022/10/31 12:05:33;;;;;;;17.45;9.30;;;19.60;78.30;;;;;;5022328;28;20036;-71
2022/10/31 12:07:59;;;;;;;12.65;7.25;;;19.60;78.50;;;;;;5028927;28;20071;-72
2022/10/31 12:10:47;;;;;;;12.65;7.80;;;19.60;78.70;;;;;;5009113;28;20069;-72
2022/10/31 12:13:31;;;;;;;24.92;15.13;;;19.50;78.80;;;;;;5019099;28;20112;-71
2022/10/31 12:16:12;;;;;;;17.33;10.05;;;19.50;78.90;;;;;;5019680;28;20024;-71
2022/10/31 12:19:13;;;;;;;16.05;9.32;;;19.60;79.00;;;;;;5027878;28;20100;-71
2022/10/31 12:21:59;;;;;;;16.40;10.60;;;19.60;79.10;;;;;;5025759;28;20049;-71
2022/10/31 12:25:08;;;;;;;11.93;7.63;;;19.80;78.80;;;;;;5020572;28;20033;-71
2022/10/31 12:27:58;;;;;;;12.00;6.35;;;19.80;78.50;;;;;;5018567;28;20442;-72
2022/10/31 12:30:31;;;;;;;18.48;12.13;;;19.80;78.30;;;;;;5022036;28;20024;-72
2022/10/31 12:33:13;;;;;;;18.17;10.80;;;19.80;78.40;;;;;;5018633;28;20021;-71
2022/10/31 12:36:05;;;;;;;24.15;13.73;;;19.80;78.50;;;;;;5024086;28;20034;-71
2022/10/31 12:39:05;;;;;;;18.42;11.38;;;19.70;78.50;;;;;;5027513;28;20733;-72
2022/10/31 12:41:45;;;;;;;13.00;8.52;;;19.70;78.70;;;;;;5007370;28;20472;-71
2022/10/31 12:44:31;;;;;;;;;;;19.70;78.70;;;;;;5012401;28;20396;-72
2022/10/31 12:47:10;;;;;;;18.35;9.85;;;19.70;78.60;;;;;;5017993;28;19905;-72
2022/10/31 12:49:55;;;;;;;17.33;9.68;;;19.80;78.70;;;;;;5020890;28;20033;-71
2022/10/31 12:52:31;;;;;;;12.43;8.65;;;19.80;78.80;;;;;;5013056;28;20402;-71
2022/10/31 12:55:38;;;;;;;15.77;10.38;;;19.80;78.50;;;;;;5017302;28;20117;-69
2022/10/31 12:58:31;;;;;;;17.77;10.27;;;19.90;78.60;;;;;;5004578;28;20026;-71